Time;durP1;ratioP1;P1;durP2;ratioP2;P2;SDS_P1;SDS_P2;PMS_P1;PMS_P2;Temp;Humidity;BMP_temperature;BMP_pressure;BME280_temperature;BME280_humidity;BME280_pressure;Samples;Min_cycle;Max_cycle;Signal;HPM_P1;HPM_P2
2023/01/12 00:02:03;;;;;;;;;;;;;;;9.37;92.26;101056.69;5093634;28;19924;-51
2023/01/12 00:04:29;;;;;;;;;;;;;;;9.37;92.12;101058.38;5089555;28;20615;-49
2023/01/12 00:06:55;;;;;;;;;;;;;;;9.37;92.46;101053.25;5091531;28;20288;-50
2023/01/12 00:09:21;;;;;;;;;;;;;;;9.36;92.24;101051.50;5092856;28;19916;-51
2023/01/12 00:11:46;;;;;;;;;;;;;;;9.39;92.36;101042.19;5090943;28;19958;-50
2023/01/12 00:14:11;;;;;;;;;;;;;;;9.40;92.81;101040.50;5090186;28;19932;-50
2023/01/12 00:16:36;;;;;;;;;;;;;;;9.40;92.56;101037.94;5091676;28;19942;-51
2023/01/12 00:19:22;;;;;;;;;;;;;;;9.40;92.93;101038.84;5085027;28;19924;-49
2023/01/12 00:21:58;;;;;;;;;;;;;;;9.42;92.79;101033.75;5086551;28;20016;-50
2023/01/12 00:24:28;;;;;;;;;;;;;;;9.44;92.88;101042.38;5090235;28;19918;-50
2023/01/12 00:26:54;;;;;;;;;;;;;;;9.45;92.88;101032.97;5094073;28;19919;-52
2023/01/12 00:29:20;;;;;;;;;;;;;;;9.46;92.87;101030.47;5088245;28;19924;-50
2023/01/12 00:31:45;;;;;;;;;;;;;;;9.48;93.07;101022.84;5086350;28;19919;-48
2023/01/12 00:34:11;;;;;;;;;;;;;;;9.48;92.89;101016.00;5095538;28;19977;-51
2023/01/12 00:36:36;;;;;;;;;;;;;;;9.49;93.54;101015.19;5093320;28;19915;-50
2023/01/12 00:39:01;;;;;;;;;;;;;;;9.48;93.36;101010.00;5090395;28;20014;-52
2023/01/12 00:46:54;;;;;;;;;;;;;;;9.49;93.88;101012.63;5093645;28;19947;-51
2023/01/12 00:49:19;;;;;;;;;;;;;;;9.51;93.81;101002.38;5091836;28;21496;-49
2023/01/12 00:51:45;;;;;;;;;;;;;;;9.51;93.45;101000.69;5089726;28;20106;-52
2023/01/12 00:54:10;;;;;;;;;;;;;;;9.51;94.32;100995.56;5086061;28;20220;-51
2023/01/12 00:56:36;;;;;;;;;;;;;;;9.51;95.12;101002.38;5078091;28;19916;-50
2023/01/12 00:59:02;;;;;;;;;;;;;;;9.49;95.38;100997.22;5081004;28;20376;-51
2023/01/12 01:01:27;;;;;;;;;;;;;;;9.50;95.22;100988.69;5090711;28;20019;-50
2023/01/12 01:03:53;;;;;;;;;;;;;;;9.51;95.15;100992.13;5078236;28;19912;-51
2023/01/12 01:06:18;;;;;;;;;;;;;;;9.50;95.43;100975.84;5090870;28;19919;-49
2023/01/12 01:08:43;;;;;;;;;;;;;;;9.50;95.40;100972.41;5090805;28;20366;-50
2023/01/12 01:11:10;;;;;;;;;;;;;;;9.49;95.59;100968.97;5088550;28;20340;-51
2023/01/12 01:13:36;;;;;;;;;;;;;;;9.50;95.52;100962.16;5088710;28;19924;-51
2023/01/12 01:16:02;;;;;;;;;;;;;;;9.51;96.25;100958.75;5088151;28;19914;-50
2023/01/12 01:18:28;;;;;;;;;;;;;;;9.50;96.53;100970.72;5087242;28;19920;-49
2023/01/12 01:20:54;;;;;;;;;;;;;;;9.49;96.13;100963.84;5081723;28;19915;-50
2023/01/12 01:23:20;;;;;;;;;;;;;;;9.49;96.91;100958.72;5088205;28;19920;-50
2023/01/12 01:25:45;;;;;;;;;;;;;;;9.48;96.95;100951.84;5088948;28;20026;-50
2023/01/12 01:28:10;;;;;;;;;;;;;;;9.46;96.92;100938.06;5074688;28;19978;-50
2023/01/12 01:30:35;;;;;;;;;;;;;;;9.46;97.38;100950.88;5086242;28;19927;-51
2023/01/12 01:33:00;;;;;;;;;;;;;;;9.47;96.98;100950.09;5078993;28;19924;-52
2023/01/12 01:35:26;;;;;;;;;;;;;;;9.47;97.34;100949.22;5087671;28;20270;-51
2023/01/12 01:37:51;;;;;;;;;;;;;;;9.46;98.02;100944.88;5078959;28;20295;-51
2023/01/12 01:40:16;;;;;;;;;;;;;;;9.46;97.91;100945.75;5078253;28;19981;-49
2023/01/12 01:42:41;;;;;;;;;;;;;;;9.46;97.52;100947.44;5085812;28;19967;-48
2023/01/12 01:45:10;;;;;;;;;;;;;;;9.46;98.01;100950.03;5090233;28;19916;-49
2023/01/12 01:47:41;;;;;;;;;;;;;;;9.45;98.06;100943.16;5090815;28;20105;-51
2023/01/12 01:50:33;;;;;;;;;;;;;;;9.44;98.07;100933.69;5084476;28;20399;-49
2023/01/12 01:53:02;;;;;;;;;;;;;;;9.43;98.01;100927.69;5088298;28;19920;-51
2023/01/12 01:55:32;;;;;;;;;;;;;;;9.44;98.31;100926.88;5091529;28;19915;-52
2023/01/12 01:57:59;;;;;;;;;;;;;;;9.42;98.73;100923.41;5086066;28;19994;-51
2023/01/12 02:00:25;;;;;;;;;;;;;;;9.43;98.38;100917.44;5085320;28;20352;-51
2023/01/12 02:02:51;;;;;;;;;;;;;;;9.43;98.40;100912.31;5073183;28;19922;-50
2023/01/12 02:05:18;;;;;;;;;;;;;;;9.42;98.41;100913.13;5086253;28;19916;-51
2023/01/12 02:07:44;;;;;;;;;;;;;;;9.42;98.32;100908.00;5088060;28;19919;-48
2023/01/12 02:10:09;;;;;;;;;;;;;;;9.40;98.46;100910.53;5086138;28;19920;-51
2023/01/12 02:18:16;;;;;;;;;;;;;;;9.40;98.52;100917.31;5083096;28;19919;-52
2023/01/12 02:20:58;;;;;;;;;;;;;;;9.40;98.53;100907.94;5088052;28;19918;-51
2023/01/12 02:23:26;;;;;;;;;;;;;;;9.42;98.39;100892.59;5083878;28;20412;-51
2023/01/12 02:26:03;;;;;;;;;;;;;;;9.41;98.39;100883.16;5089831;28;19912;-51
2023/01/12 02:28:43;;;;;;;;;;;;;;;9.40;98.37;100899.34;5085594;28;20269;-50
2023/01/12 02:31:11;;;;;;;;;;;;;;;9.40;98.70;100884.84;5082882;28;19912;-52
2023/01/12 02:33:39;;;;;;;;;;;;;;;9.40;98.66;100878.81;5091166;28;19967;-50
2023/01/12 02:36:23;;;;;;;;;;;;;;;9.39;98.54;100869.38;5083836;28;20292;-50
2023/01/12 02:38:55;;;;;;;;;;;;;;;9.37;98.57;100863.34;5085812;28;19982;-50
2023/01/12 02:44:23;;;;;;;;;;;;;;;9.37;98.43;100850.50;5089078;28;20295;-49
2023/01/12 02:46:49;;;;;;;;;;;;;;;9.37;98.58;100845.38;5090694;28;19912;-51
2023/01/12 02:49:16;;;;;;;;;;;;;;;9.35;98.77;100837.63;5089532;28;19966;-50
2023/01/12 02:51:45;;;;;;;;;;;;;;;9.38;98.51;100847.13;5071634;28;19919;-50
2023/01/12 02:54:12;;;;;;;;;;;;;;;9.38;98.93;100845.41;5087725;28;20509;-50
2023/01/12 02:56:43;;;;;;;;;;;;;;;9.38;98.79;100837.72;5084711;28;19915;-51
2023/01/12 02:59:12;;;;;;;;;;;;;;;9.38;98.73;100836.84;5087080;28;19916;-52
2023/01/12 03:01:39;;;;;;;;;;;;;;;9.36;98.98;100823.97;5087441;28;19959;-49
2023/01/12 03:04:05;;;;;;;;;;;;;;;9.37;98.91;100824.84;5089299;28;19911;-49
2023/01/12 03:06:42;;;;;;;;;;;;;;;9.37;99.04;100827.41;5092329;28;19912;-49
2023/01/12 03:09:07;;;;;;;;;;;;;;;9.38;99.08;100811.19;5084157;28;19926;-49
2023/01/12 03:11:35;;;;;;;;;;;;;;;9.37;99.23;100806.88;5090694;28;19907;-50
2023/01/12 03:14:01;;;;;;;;;;;;;;;9.38;99.34;100788.09;5091105;28;19930;-51
2023/01/12 03:16:29;;;;;;;;;;;;;;;9.37;99.13;100789.78;5087619;28;20335;-50
2023/01/12 03:19:04;;;;;;;;;;;;;;;9.36;99.51;100782.91;5088232;28;19922;-51
2023/01/12 03:21:47;;;;;;;;;;;;;;;9.35;99.63;100770.91;5088139;28;20350;-50
2023/01/12 03:24:21;;;;;;;;;;;;;;;9.35;99.56;100773.47;5089735;28;20369;-48
2023/01/12 03:26:49;;;;;;;;;;;;;;;9.34;99.72;100761.47;5085619;28;19916;-51
2023/01/12 03:29:18;;;;;;;;;;;;;;;9.35;99.74;100760.66;5088194;28;20002;-51
2023/01/12 03:31:44;;;;;;;;;;;;;;;9.34;99.79;100755.44;5087135;28;19915;-52
2023/01/12 03:34:09;;;;;;;;;;;;;;;9.36;99.61;100769.22;5092467;28;19924;-50
2023/01/12 03:36:37;;;;;;;;;;;;;;;9.35;99.56;100755.53;5087285;28;19930;-52
2023/01/12 03:39:05;;;;;;;;;;;;;;;9.36;99.82;100764.09;5082147;28;19916;-51
2023/01/12 03:41:49;;;;;;;;;;;;;;;9.35;99.85;100740.13;5086311;28;19912;-51
2023/01/12 03:44:27;;;;;;;;;;;;;;;9.35;99.96;100741.81;5088648;28;19923;-49
2023/01/12 03:46:55;;;;;;;;;;;;;;;9.34;100.00;100727.22;5090772;28;19915;-51
2023/01/12 03:49:42;;;;;;;;;;;;;;;9.33;100.00;100717.78;5085170;28;19920;-52
2023/01/12 03:52:09;;;;;;;;;;;;;;;9.33;99.92;100710.09;5090483;28;19970;-51
2023/01/12 03:54:35;;;;;;;;;;;;;;;9.33;100.00;100699.81;5095444;28;20428;-50
2023/01/12 03:57:01;;;;;;;;;;;;;;;9.33;99.46;100687.00;5096005;28;20429;-50
2023/01/12 03:59:27;;;;;;;;;;;;;;;9.32;99.63;100693.81;5092498;28;19924;-51
2023/01/12 04:01:52;;;;;;;;;;;;;;;9.33;99.50;100689.56;5099166;28;19923;-51
2023/01/12 04:04:18;;;;;;;;;;;;;;;9.33;99.58;100680.16;5085510;28;20360;-48
2023/01/12 04:06:44;;;;;;;;;;;;;;;9.33;99.61;100677.59;5105420;28;19922;-49
2023/01/12 04:09:09;;;;;;;;;;;;;;;9.35;99.68;100667.41;5093295;28;20304;-51
2023/01/12 04:14:18;;;;;;;;;;;;;;;9.34;99.76;100640.88;5093871;28;19965;-50
2023/01/12 04:16:45;;;;;;;;;;;;;;;9.35;99.67;100627.22;5102140;28;19924;-50
2023/01/12 04:19:11;;;;;;;;;;;;;;;9.34;100.00;100622.00;5090280;28;19916;-51
2023/01/12 04:24:19;;;;;;;;;;;;;;;9.34;100.00;100622.00;5099962;28;19931;-49
2023/01/12 04:26:45;;;;;;;;;;;;;;;9.31;100.00;100603.97;5099766;28;19999;-51
2023/01/12 04:29:11;;;;;;;;;;;;;;;9.31;100.00;100583.44;5098578;28;20016;-53
2023/01/12 04:31:37;;;;;;;;;;;;;;;9.29;100.00;100592.81;5093339;28;19924;-47
2023/01/12 04:34:02;;;;;;;;;;;;;;;9.29;100.00;100582.56;5099555;28;20009;-51
2023/01/12 04:36:27;;;;;;;;;;;;;;;9.29;100.00;100565.47;5097594;28;20007;-51
2023/01/12 04:38:52;;;;;;;;;;;;;;;9.28;100.00;100561.16;5088454;28;19938;-49
2023/01/12 04:41:18;;;;;;;;;;;;;;;9.27;100.00;100551.69;5093141;28;19915;-48
2023/01/12 04:43:44;;;;;;;;;;;;;;;9.27;100.00;100561.09;5091189;28;20396;-50
2023/01/12 04:46:09;;;;;;;;;;;;;;;9.25;100.00;100557.63;5091382;28;19960;-50
2023/01/12 04:48:36;;;;;;;;;;;;;;;9.26;100.00;100549.97;5094238;28;20323;-50
2023/01/12 04:51:02;;;;;;;;;;;;;;;9.26;100.00;100551.66;5092011;28;20595;-51
2023/01/12 04:53:27;;;;;;;;;;;;;;;9.24;100.00;100554.19;5113636;27;19931;-51
2023/01/12 04:55:52;;;;;;;;;;;;;;;9.25;100.00;100560.19;5099621;28;19908;-52
2023/01/12 04:58:18;;;;;;;;;;;;;;;9.26;100.00;100555.09;5100841;28;19922;-51
2023/01/12 05:00:43;;;;;;;;;;;;;;;9.26;100.00;100541.41;5097400;28;19912;-52
2023/01/12 05:03:12;;;;;;;;;;;;;;;9.26;100.00;100536.25;5090188;28;19911;-52
2023/01/12 05:05:37;;;;;;;;;;;;;;;9.26;100.00;100554.22;5097946;28;19924;-52
2023/01/12 05:10:52;;;;;;;;;;;;;;;9.26;100.00;100508.91;5093117;28;19937;-51
2023/01/12 05:13:17;;;;;;;;;;;;;;;9.27;100.00;100533.72;5088865;28;19969;-51
2023/01/12 05:15:42;;;;;;;;;;;;;;;9.26;100.00;100542.25;5087005;28;19928;-51
2023/01/12 05:18:07;;;;;;;;;;;;;;;9.28;100.00;100535.50;5101558;28;19923;-49
2023/01/12 05:20:33;;;;;;;;;;;;;;;9.29;100.00;100554.31;5099961;28;19922;-51
2023/01/12 05:22:58;;;;;;;;;;;;;;;9.29;100.00;100547.50;5100869;28;19916;-51
2023/01/12 05:25:25;;;;;;;;;;;;;;;9.29;100.00;100533.81;5097212;28;19916;-50
2023/01/12 05:27:53;;;;;;;;;;;;;;;9.30;100.00;100533.84;5089024;28;20284;-51
2023/01/12 05:30:19;;;;;;;;;;;;;;;9.28;100.00;100539.72;5091076;28;19912;-52
2023/01/12 05:32:44;;;;;;;;;;;;;;;9.27;100.00;100514.91;5088575;28;19924;-50
2023/01/12 05:35:10;;;;;;;;;;;;;;;9.26;100.00;100500.34;5100987;28;19960;-52
2023/01/12 05:37:35;;;;;;;;;;;;;;;9.26;100.00;100505.47;5100459;28;20014;-52
2023/01/12 05:40:00;;;;;;;;;;;;;;;9.25;100.00;100512.31;5091276;28;19916;-50
2023/01/12 05:45:10;;;;;;;;;;;;;;;9.25;100.00;100507.19;5089943;28;19960;-52
2023/01/12 05:47:35;;;;;;;;;;;;;;;9.26;100.00;100508.91;5090720;28;20380;-51
2023/01/12 05:50:00;;;;;;;;;;;;;;;9.27;100.00;100500.38;5091314;28;19916;-49
2023/01/12 05:52:25;;;;;;;;;;;;;;;9.25;100.00;100509.75;5085311;28;20004;-51
2023/01/12 05:54:51;;;;;;;;;;;;;;;9.27;100.00;100496.94;5090539;28;20006;-49
2023/01/12 05:57:16;;;;;;;;;;;;;;;9.27;100.00;100494.38;5089281;28;19920;-51
2023/01/12 05:59:41;;;;;;;;;;;;;;;9.26;100.00;100498.66;5087679;28;19916;-51
2023/01/12 06:02:10;;;;;;;;;;;;;;;9.28;100.00;100506.38;5085310;28;19916;-51
2023/01/12 06:04:36;;;;;;;;;;;;;;;9.28;100.00;100493.53;5088559;28;20001;-52
2023/01/12 06:07:01;;;;;;;;;;;;;;;9.28;100.00;100488.41;5083035;28;19970;-52
2023/01/12 06:09:26;;;;;;;;;;;;;;;9.29;100.00;100495.31;5088568;28;19969;-49
2023/01/12 06:14:35;;;;;;;;;;;;;;;9.27;100.00;100489.25;5096919;28;19930;-50
2023/01/12 06:17:01;;;;;;;;;;;;;;;9.29;100.00;100487.63;5093869;28;19916;-51
2023/01/12 06:19:26;;;;;;;;;;;;;;;9.30;100.00;100489.34;5090253;28;19915;-50
2023/01/12 06:21:53;;;;;;;;;;;;;;;9.31;100.00;100473.13;5098049;28;20356;-51
2023/01/12 06:24:18;;;;;;;;;;;;;;;9.32;100.00;100492.81;5090635;28;20356;-49
2023/01/12 06:26:44;;;;;;;;;;;;;;;9.31;100.00;100480.81;5091885;28;19916;-51
2023/01/12 06:29:10;;;;;;;;;;;;;;;9.30;100.00;100485.09;5099574;27;19985;-51
2023/01/12 06:31:37;;;;;;;;;;;;;;;9.33;100.00;100485.16;5093494;28;20379;-50
2023/01/12 06:34:02;;;;;;;;;;;;;;;9.34;100.00;100491.16;5101097;28;20306;-51
2023/01/12 06:36:28;;;;;;;;;;;;;;;9.36;100.00;100489.50;5092049;28;20022;-51
2023/01/12 06:38:53;;;;;;;;;;;;;;;9.37;100.00;100486.13;5096774;28;19922;-50
2023/01/12 06:44:02;;;;;;;;;;;;;;;9.38;100.00;100490.41;5091852;28;20027;-52
2023/01/12 06:46:27;;;;;;;;;;;;;;;9.38;100.00;100505.81;5092583;28;20001;-51
2023/01/12 06:48:56;;;;;;;;;;;;;;;9.39;100.00;100500.72;5095706;28;19912;-49
2023/01/12 06:51:22;;;;;;;;;;;;;;;9.40;100.00;100491.31;5104249;28;19912;-51
2023/01/12 06:53:47;;;;;;;;;;;;;;;9.40;100.00;100499.00;5086599;28;19942;-50
2023/01/12 06:56:12;;;;;;;;;;;;;;;9.41;100.00;100508.47;5095775;28;19916;-51
2023/01/12 06:58:37;;;;;;;;;;;;;;;9.41;100.00;100503.34;5097399;28;20367;-50
2023/01/12 07:01:03;;;;;;;;;;;;;;;9.43;100.00;100498.25;5099872;28;20328;-51
2023/01/12 07:03:28;;;;;;;;;;;;;;;9.43;100.00;100501.69;5097174;28;20355;-52
2023/01/12 07:05:57;;;;;;;;;;;;;;;9.45;100.00;100496.56;5095819;28;19911;-48
2023/01/12 07:08:22;;;;;;;;;;;;;;;9.46;100.00;100513.72;5097580;28;19908;-51
2023/01/12 07:10:47;;;;;;;;;;;;;;;9.46;100.00;100511.13;5075065;28;19917;-46
2023/01/12 07:13:12;;;;;;;;;;;;;;;9.47;100.00;100508.63;5093623;28;19920;-47
2023/01/12 07:15:37;;;;;;;;;;;;;;;9.46;100.00;100496.59;5096803;28;19915;-51
2023/01/12 07:18:03;;;;;;;;;;;;;;;9.48;100.00;100510.38;5091432;28;19919;-51
2023/01/12 07:20:28;;;;;;;;;;;;;;;9.50;100.00;100523.25;5095104;28;19916;-52
2023/01/12 07:22:54;;;;;;;;;;;;;;;9.51;100.00;100514.69;5091606;28;20018;-51
2023/01/12 07:25:19;;;;;;;;;;;;;;;9.51;100.00;100510.44;5098964;28;19938;-49
2023/01/12 07:27:48;;;;;;;;;;;;;;;9.51;100.00;100524.97;5087729;28;20006;-49
2023/01/12 07:30:13;;;;;;;;;;;;;;;9.50;100.00;100521.53;5086108;28;19912;-50
2023/01/12 07:32:39;;;;;;;;;;;;;;;9.50;100.00;100512.97;5109680;28;20392;-49
2023/01/12 07:35:04;;;;;;;;;;;;;;;9.51;100.00;100520.69;5100902;28;19916;-48
2023/01/12 07:37:29;;;;;;;;;;;;;;;9.52;100.00;100517.31;5107965;28;19916;-49
2023/01/12 07:39:54;;;;;;;;;;;;;;;9.52;100.00;100522.44;5101973;28;19996;-50
2023/01/12 07:42:23;;;;;;;;;;;;;;;9.53;100.00;100521.63;5102922;28;19928;-49
2023/01/12 07:44:48;;;;;;;;;;;;;;;9.54;100.00;100531.06;5094121;28;19955;-50
2023/01/12 07:47:13;;;;;;;;;;;;;;;9.55;100.00;100535.38;5096152;28;19992;-47
2023/01/12 07:49:38;;;;;;;;;;;;;;;9.56;100.00;100529.41;5098964;28;19920;-51
2023/01/12 07:52:04;;;;;;;;;;;;;;;9.56;100.00;100549.94;5089681;28;20426;-53
2023/01/12 07:54:29;;;;;;;;;;;;;;;9.58;100.00;100549.97;5092521;28;20357;-51
2023/01/12 07:56:54;;;;;;;;;;;;;;;9.59;100.00;100528.63;5092199;28;19989;-50
2023/01/12 07:59:20;;;;;;;;;;;;;;;9.59;100.00;100539.75;5089488;28;20014;-54
2023/01/12 08:01:45;;;;;;;;;;;;;;;9.60;100.00;100536.38;5090020;28;19912;-51
2023/01/12 08:04:10;;;;;;;;;;;;;;;9.61;100.00;100538.09;5098601;28;19919;-52
2023/01/12 08:06:35;;;;;;;;;;;;;;;9.63;100.00;100553.53;5107139;28;19919;-50
2023/01/12 08:09:01;;;;;;;;;;;;;;;9.64;100.00;100543.28;5102801;28;20395;-48
2023/01/12 08:11:26;;;;;;;;;;;;;;;9.65;100.00;100547.63;5101318;28;19959;-50
2023/01/12 08:13:53;;;;;;;;;;;;;;;9.65;100.00;100563.03;5096465;28;19915;-49
2023/01/12 08:16:21;;;;;;;;;;;;;;;9.64;100.00;100558.69;5093985;28;20368;-49
2023/01/12 08:18:51;;;;;;;;;;;;;;;9.67;100.00;100566.50;5092578;28;19908;-50
2023/01/12 08:21:18;;;;;;;;;;;;;;;9.68;100.00;100564.81;5093930;28;19908;-53
2023/01/12 08:23:46;;;;;;;;;;;;;;;9.68;100.00;100550.25;5094234;28;19912;-52
2023/01/12 08:26:13;;;;;;;;;;;;;;;9.68;100.00;100550.25;5086078;28;20018;-50
2023/01/12 08:28:42;;;;;;;;;;;;;;;9.71;100.00;100564.00;5084685;28;19912;-51
2023/01/12 08:31:08;;;;;;;;;;;;;;;9.73;100.00;100557.22;5086972;28;19912;-54
2023/01/12 08:33:34;;;;;;;;;;;;;;;9.73;100.00;100572.63;5090616;28;19926;-53
2023/01/12 08:35:59;;;;;;;;;;;;;;;9.73;100.00;100554.66;5072834;28;20281;-52
2023/01/12 08:38:25;;;;;;;;;;;;;;;9.75;100.00;100560.69;5090495;28;19959;-52
2023/01/12 08:46:18;;;;;;;;;;;;;;;9.81;100.00;100566.84;5092094;28;19923;-50
2023/01/12 08:48:43;;;;;;;;;;;;;;;9.82;100.00;100572.88;5093872;28;19915;-51
2023/01/12 08:51:08;;;;;;;;;;;;;;;9.83;100.00;100572.94;5087198;28;19916;-53
2023/01/12 08:53:34;;;;;;;;;;;;;;;9.84;100.00;100577.22;5097723;28;20265;-50
2023/01/12 08:55:59;;;;;;;;;;;;;;;9.87;100.00;100591.84;5094075;28;19916;-49
2023/01/12 08:58:24;;;;;;;;;;;;;;;9.86;100.00;100587.53;5102249;28;19981;-50
2023/01/12 09:00:50;;;;;;;;;;;;;;;9.85;100.00;100589.22;5090966;28;19920;-50
2023/01/12 09:03:15;;;;;;;;;;;;;;;9.86;100.00;100583.25;5090182;28;19920;-51
2023/01/12 09:05:40;;;;;;;;;;;;;;;9.88;100.00;100585.88;5086532;28;19958;-51
2023/01/12 09:08:05;;;;;;;;;;;;;;;9.90;100.00;100591.94;5084811;28;19939;-52
2023/01/12 09:10:31;;;;;;;;;;;;;;;9.90;100.00;100592.78;5083578;28;19985;-53
2023/01/12 09:12:56;;;;;;;;;;;;;;;9.90;100.00;100592.78;5082921;28;19924;-50
2023/01/12 09:15:21;;;;;;;;;;;;;;;9.93;100.00;100586.84;5084369;28;19959;-48
2023/01/12 09:17:55;;;;;;;;;;;;;;;9.94;100.00;100598.88;5089521;28;19939;-50
2023/01/12 09:20:21;;;;;;;;;;;;;;;9.96;100.00;100598.94;5086756;28;20272;-52
2023/01/12 09:22:46;;;;;;;;;;;;;;;9.96;100.00;100599.78;5091496;28;19920;-46
2023/01/12 09:25:12;;;;;;;;;;;;;;;9.96;100.00;100602.38;5098605;28;20014;-49
2023/01/12 09:27:37;;;;;;;;;;;;;;;9.99;100.00;100611.84;5092248;28;19912;-52
2023/01/12 09:30:03;;;;;;;;;;;;;;;9.99;100.00;100601.56;5086159;28;20339;-51
2023/01/12 09:32:28;;;;;;;;;;;;;;;10.00;100.00;100606.72;5094888;28;19912;-51
2023/01/12 09:34:53;;;;;;;;;;;;;;;10.00;100.00;100604.16;5075883;28;19916;-47
2023/01/12 09:37:19;;;;;;;;;;;;;;;10.01;100.00;100612.75;5084268;28;19982;-48
2023/01/12 09:39:44;;;;;;;;;;;;;;;10.03;100.00;100617.09;5084311;28;19924;-49
2023/01/12 09:47:52;;;;;;;;;;;;;;;10.05;100.00;100617.13;5091001;28;19938;-51
2023/01/12 09:50:28;;;;;;;;;;;;;;;10.06;100.00;100619.75;5089079;28;20007;-50
2023/01/12 09:53:06;;;;;;;;;;;;;;;10.08;100.00;100624.94;5088377;28;20368;-47
2023/01/12 09:55:40;;;;;;;;;;;;;;;10.09;100.00;100621.53;5081949;28;20011;-49
2023/01/12 09:58:20;;;;;;;;;;;;;;;10.10;100.00;100624.13;5088087;28;19937;-52
2023/01/12 10:00:54;;;;;;;;;;;;;;;10.12;100.00;100630.19;5089034;28;19914;-49
2023/01/12 10:03:34;;;;;;;;;;;;;;;10.15;100.00;100630.25;5088331;28;20467;-50
2023/01/12 10:06:00;;;;;;;;;;;;;;;10.15;100.00;100643.13;5090955;28;20105;-51
2023/01/12 10:08:34;;;;;;;;;;;;;;;10.18;100.00;100642.31;5101166;28;20014;-50
2023/01/12 10:11:07;;;;;;;;;;;;;;;10.20;100.00;100638.09;5091746;28;19916;-51
2023/01/12 10:13:45;;;;;;;;;;;;;;;10.18;100.00;100638.03;5100382;27;19920;-47
2023/01/12 10:16:17;;;;;;;;;;;;;;;10.20;100.00;100648.38;5098811;28;20003;-51
2023/01/12 10:18:46;;;;;;;;;;;;;;;10.20;100.00;100646.69;5102089;28;19911;-48
2023/01/12 10:21:11;;;;;;;;;;;;;;;10.21;100.00;100647.53;5083643;28;19920;-53
2023/01/12 10:23:37;;;;;;;;;;;;;;;10.22;100.00;100657.00;5079568;28;19927;-50
2023/01/12 10:26:08;;;;;;;;;;;;;;;10.23;100.00;100645.00;5096655;28;19911;-51
2023/01/12 10:28:35;;;;;;;;;;;;;;;10.23;100.00;100633.06;5102118;28;20008;-46
2023/01/12 10:31:01;;;;;;;;;;;;;;;10.23;100.00;100647.56;5097523;28;19915;-53
2023/01/12 10:33:28;;;;;;;;;;;;;;;10.24;100.00;100644.22;5096920;28;19923;-51
2023/01/12 10:35:53;;;;;;;;;;;;;;;10.24;100.00;100659.63;5087951;28;19922;-52
2023/01/12 10:38:24;;;;;;;;;;;;;;;10.25;100.00;100644.22;5085403;28;19918;-53
2023/01/12 10:41:04;;;;;;;;;;;;;;;10.26;100.00;100648.56;5089229;28;19959;-51
2023/01/12 10:43:35;;;;;;;;;;;;;;;10.27;100.00;100644.31;5091455;28;19915;-53
2023/01/12 10:46:02;;;;;;;;;;;;;;;10.27;100.00;100636.59;5091667;28;20416;-51
2023/01/12 10:48:27;;;;;;;;;;;;;;;10.28;100.00;100638.31;5094152;28;19911;-51
2023/01/12 10:51:04;;;;;;;;;;;;;;;10.26;100.00;100643.44;5095611;28;19908;-53
2023/01/12 10:53:49;;;;;;;;;;;;;;;10.27;100.00;100640.03;5102749;28;20019;-53
2023/01/12 10:56:27;;;;;;;;;;;;;;;10.27;100.00;100641.72;5086997;28;19912;-52
2023/01/12 10:59:01;;;;;;;;;;;;;;;10.28;100.00;100641.75;5096593;28;20349;-52
2023/01/12 11:01:41;;;;;;;;;;;;;;;10.29;100.00;100640.06;5077404;28;19920;-52
2023/01/12 11:04:09;;;;;;;;;;;;;;;10.28;100.00;100634.06;5087345;28;19947;-50
2023/01/12 11:06:35;;;;;;;;;;;;;;;10.28;100.00;100633.19;5091373;28;20003;-52
2023/01/12 11:09:16;;;;;;;;;;;;;;;10.31;100.00;100635.81;5089818;28;19970;-53
2023/01/12 11:11:41;;;;;;;;;;;;;;;10.30;100.00;100632.38;5092136;28;19923;-53
2023/01/12 11:14:18;;;;;;;;;;;;;;;10.31;100.00;100631.53;5097898;28;19924;-53
2023/01/12 11:16:46;;;;;;;;;;;;;;;10.34;100.00;100628.19;5096750;28;19982;-53
2023/01/12 11:19:15;;;;;;;;;;;;;;;10.34;100.00;100626.50;5093564;28;20271;-52
2023/01/12 11:21:44;;;;;;;;;;;;;;;10.35;100.00;100638.50;5089866;28;19923;-52
2023/01/12 11:24:14;;;;;;;;;;;;;;;10.35;100.00;100625.66;5088812;28;19950;-54
2023/01/12 11:26:57;;;;;;;;;;;;;;;10.36;100.00;100634.25;5095035;28;19934;-52
2023/01/12 11:29:42;;;;;;;;;;;;;;;10.36;100.00;100632.53;5095667;28;19951;-51
2023/01/12 11:32:11;;;;;;;;;;;;;;;10.38;100.00;100630.91;5088188;28;19919;-52
2023/01/12 11:34:39;;;;;;;;;;;;;;;10.39;100.00;100634.34;5096972;28;20435;-53
2023/01/12 11:37:10;;;;;;;;;;;;;;;10.40;100.00;100633.50;5092376;28;21054;-48
2023/01/12 11:39:35;;;;;;;;;;;;;;;10.42;100.00;100640.41;5089486;28;19916;-53
2023/01/12 11:44:50;;;;;;;;;;;;;;;10.43;100.00;100631.88;5089914;28;19922;-50
2023/01/12 11:47:20;;;;;;;;;;;;;;;10.46;100.00;100636.22;5084054;28;20365;-53
2023/01/12 11:49:45;;;;;;;;;;;;;;;10.47;100.00;100632.81;5080515;28;19919;-53
2023/01/12 11:52:12;;;;;;;;;;;;;;;10.48;100.00;100631.97;5090661;28;19965;-53
2023/01/12 11:54:38;;;;;;;;;;;;;;;10.50;100.00;100634.59;5089501;28;19943;-49
2023/01/12 11:57:18;;;;;;;;;;;;;;;10.51;100.00;100639.78;5091025;28;20439;-53
2023/01/12 11:59:43;;;;;;;;;;;;;;;10.51;100.00;100629.50;5080788;28;20276;-51
2023/01/12 12:02:27;;;;;;;;;;;;;;;10.51;100.00;100626.94;5093164;28;20212;-52
2023/01/12 12:05:09;;;;;;;;;;;;;;;10.53;100.00;100637.22;5082489;28;19912;-53
2023/01/12 12:07:52;;;;;;;;;;;;;;;10.51;100.00;100624.34;5087090;28;19931;-53
2023/01/12 12:10:23;;;;;;;;;;;;;;;10.52;100.00;100626.09;5087377;28;19919;-50
2023/01/12 12:12:51;;;;;;;;;;;;;;;10.51;100.00;100616.63;5083148;28;19927;-51
2023/01/12 12:15:24;;;;;;;;;;;;;;;10.53;100.00;100611.53;5091223;28;19912;-49
2023/01/12 12:18:02;;;;;;;;;;;;;;;10.50;100.00;100607.19;5087204;28;20437;-53
2023/01/12 12:20:33;;;;;;;;;;;;;;;10.52;100.00;100609.78;5092927;28;20428;-53
2023/01/12 12:23:04;;;;;;;;;;;;;;;10.50;100.00;100596.91;5087728;28;19912;-52
2023/01/12 12:25:43;;;;;;;;;;;;;;;10.53;100.00;100604.69;5093097;28;20445;-53
2023/01/12 12:28:08;;;;;;;;;;;;;;;10.53;100.00;100598.66;5087978;28;19955;-51
2023/01/12 12:30:37;;;;;;;;;;;;;;;10.53;100.00;100596.97;5089094;28;20431;-53
2023/01/12 12:33:02;;;;;;;;;;;;;;;10.53;100.00;100586.69;5088071;28;20364;-52
2023/01/12 12:35:33;;;;;;;;;;;;;;;10.53;100.00;100596.97;5085411;28;19962;-52
2023/01/12 12:38:07;;;;;;;;;;;;;;;10.54;100.00;100592.69;5091290;28;19919;-53
2023/01/12 12:45:15;;;;;;;;;;;;;;;10.55;100.00;100584.13;5082108;28;20007;-52
2023/01/12 12:46:15;;;;;;;;;;;;;;;10.56;100.00;100588.47;5087639;28;19964;-52
2023/01/12 12:48:43;;;;;;;;;;;;;;;10.55;100.00;100574.72;5079592;28;19912;-52
2023/01/12 12:51:10;;;;;;;;;;;;;;;10.55;100.00;100584.13;5087744;28;20616;-52
2023/01/12 12:53:40;;;;;;;;;;;;;;;10.56;100.00;100585.91;5081502;28;19985;-51
2023/01/12 12:56:13;;;;;;;;;;;;;;;10.57;100.00;100577.34;5087633;28;20315;-52
2023/01/12 12:58:39;;;;;;;;;;;;;;;10.57;100.00;100574.78;5088652;28;19919;-52
2023/01/12 13:01:19;;;;;;;;;;;;;;;10.56;100.00;100568.78;5087435;28;19912;-45
2023/01/12 13:03:45;;;;;;;;;;;;;;;10.56;100.00;100581.63;5083797;28;19913;-51
2023/01/12 13:06:11;;;;;;;;;;;;;;;10.56;100.00;100581.63;5089895;28;20403;-50
2023/01/12 13:08:37;;;;;;;;;;;;;;;10.57;100.00;100574.78;5094015;28;19955;-50
2023/01/12 13:11:03;;;;;;;;;;;;;;;10.58;100.00;100576.53;5081918;28;19920;-50
2023/01/12 13:13:30;;;;;;;;;;;;;;;10.57;100.00;100585.94;5086930;28;20376;-53
2023/01/12 13:16:25;;;;;;;;;;;;;;;10.59;100.00;100593.69;5095453;28;20003;-49
2023/01/12 13:19:03;;;;;;;;;;;;;;;10.59;100.00;100581.69;5023137;28;20378;-52
2023/01/12 13:21:30;;;;;;;;;;;;;;;10.59;100.00;100583.38;5086353;28;19929;-50
2023/01/12 13:24:10;;;;;;;;;;;;;;;10.59;100.00;100584.25;5083284;28;19933;-51
2023/01/12 13:26:39;;;;;;;;;;;;;;;10.60;100.00;100567.13;5086974;28;19916;-48
2023/01/12 13:29:23;;;;;;;;;;;;;;;10.60;100.00;100577.41;5085898;28;19911;-51
2023/01/12 13:31:54;;;;;;;;;;;;;;;10.61;100.00;100564.59;5084251;28;20071;-51